sensor_id;sensor_type;location;lat;lon;timestamp;pressure;altitude;pressure_sealevel;temperature
64296;BMP280;51082;38.236;15.432;2023-10-08T00:00:51;102252.53;;;25.92
64296;BMP280;51082;38.236;15.432;2023-10-08T00:01:56;102247.50;;;25.91
64296;BMP280;51082;38.236;15.432;2023-10-08T00:02:59;102241.88;;;25.92
64296;BMP280;51082;38.236;15.432;2023-10-08T00:04:00;102244.81;;;25.91
64296;BMP280;51082;38.236;15.432;2023-10-08T00:05:06;102238.66;;;25.90
64296;BMP280;51082;38.236;15.432;2023-10-08T00:06:07;102239.19;;;25.92
64296;BMP280;51082;38.236;15.432;2023-10-08T00:07:14;102238.13;;;25.93
64296;BMP280;51082;38.236;15.432;2023-10-08T00:08:15;102239.75;;;25.94
64296;BMP280;51082;38.236;15.432;2023-10-08T00:09:18;102243.47;;;25.93
64296;BMP280;51082;38.236;15.432;2023-10-08T00:10:22;102238.94;;;25.94
64296;BMP280;51082;38.236;15.432;2023-10-08T00:11:27;102231.19;;;25.92
64296;BMP280;51082;38.236;15.432;2023-10-08T00:12:30;102239.75;;;25.94
64296;BMP280;51082;38.236;15.432;2023-10-08T00:13:33;102233.59;;;25.94
64296;BMP280;51082;38.236;15.432;2023-10-08T00:14:42;102237.63;;;25.96
64296;BMP280;51082;38.236;15.432;2023-10-08T00:15:46;102231.75;;;25.99
64296;BMP280;51082;38.236;15.432;2023-10-08T00:16:53;102232.28;;;25.96
64296;BMP280;51082;38.236;15.432;2023-10-08T00:17:54;102228.00;;;25.95
64296;BMP280;51082;38.236;15.432;2023-10-08T00:18:59;102237.63;;;25.96
64296;BMP280;51082;38.236;15.432;2023-10-08T00:20:09;102229.63;;;25.96
64296;BMP280;51082;38.236;15.432;2023-10-08T00:21:18;102227.47;;;25.93
64296;BMP280;51082;38.236;15.432;2023-10-08T00:22:21;102228.81;;;25.91
64296;BMP280;51082;38.236;15.432;2023-10-08T00:23:26;102230.41;;;25.92
64296;BMP280;51082;38.236;15.432;2023-10-08T00:24:27;102232.81;;;25.93
64296;BMP280;51082;38.236;15.432;2023-10-08T00:25:32;102233.88;;;25.92
64296;BMP280;51082;38.236;15.432;2023-10-08T00:26:35;102225.34;;;25.95
64296;BMP280;51082;38.236;15.432;2023-10-08T00:27:41;102231.75;;;25.94
64296;BMP280;51082;38.236;15.432;2023-10-08T00:28:42;102237.34;;;25.93
64296;BMP280;51082;38.236;15.432;2023-10-08T00:29:50;102227.47;;;25.93
64296;BMP280;51082;38.236;15.432;2023-10-08T00:30:51;102227.47;;;25.93
64296;BMP280;51082;38.236;15.432;2023-10-08T00:31:56;102228.81;;;25.91
64296;BMP280;51082;38.236;15.432;2023-10-08T00:32:58;102229.63;;;25.91
64296;BMP280;51082;38.236;15.432;2023-10-08T00:34:00;102225.84;;;25.92
64296;BMP280;51082;38.236;15.432;2023-10-08T00:35:06;102214.88;;;25.88
64296;BMP280;51082;38.236;15.432;2023-10-08T00:36:09;102218.94;;;25.91
64296;BMP280;51082;38.236;15.432;2023-10-08T00:37:19;102218.94;;;25.91
64296;BMP280;51082;38.236;15.432;2023-10-08T00:38:24;102221.03;;;25.89
64296;BMP280;51082;38.236;15.432;2023-10-08T00:39:33;102219.44;;;25.88
64296;BMP280;51082;38.236;15.432;2023-10-08T00:40:38;102222.13;;;25.88
64296;BMP280;51082;38.236;15.432;2023-10-08T00:41:41;102226.91;;;25.86
64296;BMP280;51082;38.236;15.432;2023-10-08T00:42:44;102221.84;;;25.89
64296;BMP280;51082;38.236;15.432;2023-10-08T00:43:47;102212.50;;;25.87
64296;BMP280;51082;38.236;15.432;2023-10-08T00:44:53;102216.78;;;25.88
64296;BMP280;51082;38.236;15.432;2023-10-08T00:45:55;102214.13;;;25.88
64296;BMP280;51082;38.236;15.432;2023-10-08T00:47:00;102217.31;;;25.90
64296;BMP280;51082;38.236;15.432;2023-10-08T00:48:02;102216.50;;;25.89
64296;BMP280;51082;38.236;15.432;2023-10-08T00:49:07;102216.78;;;25.88
64296;BMP280;51082;38.236;15.432;2023-10-08T00:50:25;102216.78;;;25.88
64296;BMP280;51082;38.236;15.432;2023-10-08T00:51:43;102213.03;;;25.89
64296;BMP280;51082;38.236;15.432;2023-10-08T00:52:47;102208.78;;;25.88
64296;BMP280;51082;38.236;15.432;2023-10-08T00:54:01;102211.16;;;25.89
64296;BMP280;51082;38.236;15.432;2023-10-08T00:55:08;102207.69;;;25.89
64296;BMP280;51082;38.236;15.432;2023-10-08T00:56:16;102207.97;;;25.87
64296;BMP280;51082;38.236;15.432;2023-10-08T00:57:22;102211.16;;;25.89
64296;BMP280;51082;38.236;15.432;2023-10-08T00:58:25;102202.63;;;25.87
64296;BMP280;51082;38.236;15.432;2023-10-08T00:59:28;102206.63;;;25.90
64296;BMP280;51082;38.236;15.432;2023-10-08T01:00:36;102206.63;;;25.90
64296;BMP280;51082;38.236;15.432;2023-10-08T01:01:42;102198.88;;;25.88
64296;BMP280;51082;38.236;15.432;2023-10-08T01:02:47;102206.88;;;25.88
64296;BMP280;51082;38.236;15.432;2023-10-08T01:03:56;102194.06;;;25.85
64296;BMP280;51082;38.236;15.432;2023-10-08T01:04:57;102203.44;;;25.88
64296;BMP280;51082;38.236;15.432;2023-10-08T01:06:01;102197.00;;;25.89
64296;BMP280;51082;38.236;15.432;2023-10-08T01:07:05;102203.16;;;25.89
64296;BMP280;51082;38.236;15.432;2023-10-08T01:08:14;102205.00;;;25.89
64296;BMP280;51082;38.236;15.432;2023-10-08T01:09:23;102205.00;;;25.89
64296;BMP280;51082;38.236;15.432;2023-10-08T01:10:36;102205.00;;;25.89
64296;BMP280;51082;38.236;15.432;2023-10-08T01:11:38;102207.69;;;25.89
64296;BMP280;51082;38.236;15.432;2023-10-08T01:12:47;102204.78;;;25.91
64296;BMP280;51082;38.236;15.432;2023-10-08T01:14:06;102202.91;;;25.91
64296;BMP280;51082;38.236;15.432;2023-10-08T01:15:10;102205.59;;;25.91
64296;BMP280;51082;38.236;15.432;2023-10-08T01:16:19;102198.09;;;25.93
64296;BMP280;51082;38.236;15.432;2023-10-08T01:17:22;102202.91;;;25.91
64296;BMP280;51082;38.236;15.432;2023-10-08T01:18:25;102203.16;;;25.89
64296;BMP280;51082;38.236;15.432;2023-10-08T01:19:33;102196.50;;;25.87
64296;BMP280;51082;38.236;15.432;2023-10-08T01:20:41;102194.91;;;25.91
64296;BMP280;51082;38.236;15.432;2023-10-08T01:21:52;102198.09;;;25.88
64296;BMP280;51082;38.236;15.432;2023-10-08T01:22:56;102194.88;;;25.86
64296;BMP280;51082;38.236;15.432;2023-10-08T01:23:58;102196.50;;;25.87
64296;BMP280;51082;38.236;15.432;2023-10-08T01:25:04;102197.81;;;25.84
64296;BMP280;51082;38.236;15.432;2023-10-08T01:26:05;102198.63;;;25.85
64296;BMP280;51082;38.236;15.432;2023-10-08T01:27:12;102192.22;;;25.86
64296;BMP280;51082;38.236;15.432;2023-10-08T01:28:13;102193.28;;;25.85
64296;BMP280;51082;38.236;15.432;2023-10-08T01:29:19;102199.16;;;25.87
64296;BMP280;51082;38.236;15.432;2023-10-08T01:30:20;102187.44;;;25.88
64296;BMP280;51082;38.236;15.432;2023-10-08T01:31:25;102191.97;;;25.87
64296;BMP280;51082;38.236;15.432;2023-10-08T01:32:27;102188.19;;;25.88
64296;BMP280;51082;38.236;15.432;2023-10-08T01:33:35;102189.53;;;25.86
64296;BMP280;51082;38.236;15.432;2023-10-08T01:34:39;102188.72;;;25.85
64296;BMP280;51082;38.236;15.432;2023-10-08T01:35:46;102193.28;;;25.85
64296;BMP280;51082;38.236;15.432;2023-10-08T01:36:49;102187.94;;;25.85
64296;BMP280;51082;38.236;15.432;2023-10-08T01:37:52;102195.69;;;25.86
64296;BMP280;51082;38.236;15.432;2023-10-08T01:38:56;102190.59;;;25.85
64296;BMP280;51082;38.236;15.432;2023-10-08T01:39:59;102181.00;;;25.84
64296;BMP280;51082;38.236;15.432;2023-10-08T01:41:04;102191.94;;;25.82
64296;BMP280;51082;38.236;15.432;2023-10-08T01:42:11;102190.34;;;25.81
64296;BMP280;51082;38.236;15.432;2023-10-08T01:43:18;102184.72;;;25.83
64296;BMP280;51082;38.236;15.432;2023-10-08T01:44:22;102186.34;;;25.84
64296;BMP280;51082;38.236;15.432;2023-10-08T01:45:23;102189.81;;;25.84
64296;BMP280;51082;38.236;15.432;2023-10-08T01:46:26;102182.84;;;25.83
64296;BMP280;51082;38.236;15.432;2023-10-08T01:47:28;102185.81;;;25.87
64296;BMP280;51082;38.236;15.432;2023-10-08T01:48:31;102194.88;;;25.86
64296;BMP280;51082;38.236;15.432;2023-10-08T01:49:39;102187.94;;;25.85
64296;BMP280;51082;38.236;15.432;2023-10-08T01:50:41;102189.00;;;25.84
64296;BMP280;51082;38.236;15.432;2023-10-08T01:51:46;102194.59;;;25.82
64296;BMP280;51082;38.236;15.432;2023-10-08T01:52:48;102193.78;;;25.82
64296;BMP280;51082;38.236;15.432;2023-10-08T01:53:52;102194.59;;;25.82
64296;BMP280;51082;38.236;15.432;2023-10-08T01:54:57;102184.47;;;25.84
64296;BMP280;51082;38.236;15.432;2023-10-08T01:56:00;102196.19;;;25.83
64296;BMP280;51082;38.236;15.432;2023-10-08T01:57:02;102194.88;;;25.86
64296;BMP280;51082;38.236;15.432;2023-10-08T01:58:05;102197.81;;;25.84
64296;BMP280;51082;38.236;15.432;2023-10-08T01:59:07;102196.19;;;25.83
64296;BMP280;51082;38.236;15.432;2023-10-08T02:00:10;102188.44;;;25.82
64296;BMP280;51082;38.236;15.432;2023-10-08T02:01:14;102196.19;;;25.83
64296;BMP280;51082;38.236;15.432;2023-10-08T02:02:20;102195.94;;;25.85
64296;BMP280;51082;38.236;15.432;2023-10-08T02:03:22;102191.66;;;25.84
64296;BMP280;51082;38.236;15.432;2023-10-08T02:04:24;102191.94;;;25.82
64296;BMP280;51082;38.236;15.432;2023-10-08T02:05:26;102187.94;;;25.85
64296;BMP280;51082;38.236;15.432;2023-10-08T02:06:31;102184.22;;;25.86
64296;BMP280;51082;38.236;15.432;2023-10-08T02:07:34;102188.72;;;25.85
64296;BMP280;51082;38.236;15.432;2023-10-08T02:08:35;102183.91;;;25.82
64296;BMP280;51082;38.236;15.432;2023-10-08T02:09:38;102182.84;;;25.83
64296;BMP280;51082;38.236;15.432;2023-10-08T02:10:42;102184.72;;;25.83
64296;BMP280;51082;38.236;15.432;2023-10-08T02:11:48;102183.66;;;25.84
64296;BMP280;51082;38.236;15.432;2023-10-08T02:12:51;102187.94;;;25.85
64296;BMP280;51082;38.236;15.432;2023-10-08T02:13:52;102181.00;;;25.84
64296;BMP280;51082;38.236;15.432;2023-10-08T02:14:55;102179.94;;;25.85
64296;BMP280;51082;38.236;15.432;2023-10-08T02:15:57;102184.72;;;25.83
64296;BMP280;51082;38.236;15.432;2023-10-08T02:17:00;102180.72;;;25.80
64296;BMP280;51082;38.236;15.432;2023-10-08T02:18:07;102174.06;;;25.78
64296;BMP280;51082;38.236;15.432;2023-10-08T02:19:09;102176.16;;;25.81
64296;BMP280;51082;38.236;15.432;2023-10-08T02:20:11;102185.25;;;25.80
64296;BMP280;51082;38.236;15.432;2023-10-08T02:21:17;102188.44;;;25.82
64296;BMP280;51082;38.236;15.432;2023-10-08T02:22:19;102187.41;;;25.83
64296;BMP280;51082;38.236;15.432;2023-10-08T02:23:21;102181.25;;;25.82
64296;BMP280;51082;38.236;15.432;2023-10-08T02:24:23;102181.25;;;25.82
64296;BMP280;51082;38.236;15.432;2023-10-08T02:25:25;102187.69;;;25.81
64296;BMP280;51082;38.236;15.432;2023-10-08T02:26:28;102179.91;;;25.80
64296;BMP280;51082;38.236;15.432;2023-10-08T02:27:31;102182.06;;;25.78
64296;BMP280;51082;38.236;15.432;2023-10-08T02:28:34;102180.44;;;25.82
64296;BMP280;51082;38.236;15.432;2023-10-08T02:29:36;102179.38;;;25.83
64296;BMP280;51082;38.236;15.432;2023-10-08T02:30:38;102179.94;;;25.85
64296;BMP280;51082;38.236;15.432;2023-10-08T02:31:41;102177.78;;;25.82
64296;BMP280;51082;38.236;15.432;2023-10-08T02:32:42;102176.44;;;25.79
64296;BMP280;51082;38.236;15.432;2023-10-08T02:33:45;102175.91;;;25.77
64296;BMP280;51082;38.236;15.432;2023-10-08T02:34:46;102173.75;;;25.79
64296;BMP280;51082;38.236;15.432;2023-10-08T02:35:49;102178.31;;;25.84
64296;BMP280;51082;38.236;15.432;2023-10-08T02:36:50;102180.19;;;25.83
64296;BMP280;51082;38.236;15.432;2023-10-08T02:37:52;102181.75;;;25.79
64296;BMP280;51082;38.236;15.432;2023-10-08T02:38:55;102180.97;;;25.79
64296;BMP280;51082;38.236;15.432;2023-10-08T02:39:57;102172.69;;;25.80
64296;BMP280;51082;38.236;15.432;2023-10-08T02:40:59;102178.28;;;25.79
64296;BMP280;51082;38.236;15.432;2023-10-08T02:42:02;102179.09;;;25.79
64296;BMP280;51082;38.236;15.432;2023-10-08T02:43:11;102180.44;;;25.82
64296;BMP280;51082;38.236;15.432;2023-10-08T02:44:12;102179.91;;;25.80
64296;BMP280;51082;38.236;15.432;2023-10-08T02:45:15;102180.72;;;25.80
64296;BMP280;51082;38.236;15.432;2023-10-08T02:46:17;102177.78;;;25.82
64296;BMP280;51082;38.236;15.432;2023-10-08T02:47:20;102186.84;;;25.81
64296;BMP280;51082;38.236;15.432;2023-10-08T02:48:22;102184.19;;;25.81
64296;BMP280;51082;38.236;15.432;2023-10-08T02:49:24;102182.34;;;25.81
64296;BMP280;51082;38.236;15.432;2023-10-08T02:50:26;102188.97;;;25.79
64296;BMP280;51082;38.236;15.432;2023-10-08T02:51:28;102190.88;;;25.78
64296;BMP280;51082;38.236;15.432;2023-10-08T02:52:30;102189.25;;;25.77
64296;BMP280;51082;38.236;15.432;2023-10-08T02:53:33;102182.06;;;25.78
64296;BMP280;51082;38.236;15.432;2023-10-08T02:54:34;102186.59;;;25.77
64296;BMP280;51082;38.236;15.432;2023-10-08T02:55:38;102184.94;;;25.76
64296;BMP280;51082;38.236;15.432;2023-10-08T02:56:44;102184.44;;;25.79
64296;BMP280;51082;38.236;15.432;2023-10-08T02:57:47;102191.09;;;25.77
64296;BMP280;51082;38.236;15.432;2023-10-08T02:58:51;102183.63;;;25.79
64296;BMP280;51082;38.236;15.432;2023-10-08T02:59:53;102180.41;;;25.77
64296;BMP280;51082;38.236;15.432;2023-10-08T03:00:55;102179.91;;;25.75
64296;BMP280;51082;38.236;15.432;2023-10-08T03:01:57;102178.28;;;25.79
64296;BMP280;51082;38.236;15.432;2023-10-08T03:03:00;102180.41;;;25.77
64296;BMP280;51082;38.236;15.432;2023-10-08T03:04:03;102188.69;;;25.75
64296;BMP280;51082;38.236;15.432;2023-10-08T03:05:15;102180.97;;;25.74
64296;BMP280;51082;38.236;15.432;2023-10-08T03:06:19;102181.25;;;25.77
64296;BMP280;51082;38.236;15.432;2023-10-08T03:07:21;102185.53;;;25.78
64296;BMP280;51082;38.236;15.432;2023-10-08T03:08:22;102178.81;;;25.76
64296;BMP280;51082;38.236;15.432;2023-10-08T03:09:25;102181.75;;;25.74
64296;BMP280;51082;38.236;15.432;2023-10-08T03:10:32;102185.25;;;25.75
64296;BMP280;51082;38.236;15.432;2023-10-08T03:11:35;102180.41;;;25.77
64296;BMP280;51082;38.236;15.432;2023-10-08T03:12:38;102180.16;;;25.73
64296;BMP280;51082;38.236;15.432;2023-10-08T03:13:43;102183.34;;;25.75
64296;BMP280;51082;38.236;15.432;2023-10-08T03:14:47;102186.81;;;25.76
64296;BMP280;51082;38.236;15.432;2023-10-08T03:16:02;102185.75;;;25.77
64296;BMP280;51082;38.236;15.432;2023-10-08T03:17:09;102179.91;;;25.75
64296;BMP280;51082;38.236;15.432;2023-10-08T03:18:11;102186.31;;;25.79
64296;BMP280;51082;38.236;15.432;2023-10-08T03:19:16;102184.94;;;25.76
64296;BMP280;51082;38.236;15.432;2023-10-08T03:20:20;102187.91;;;25.80
64296;BMP280;51082;38.236;15.432;2023-10-08T03:21:38;102191.09;;;25.77
64296;BMP280;51082;38.236;15.432;2023-10-08T03:22:56;102193.25;;;25.75
64296;BMP280;51082;38.236;15.432;2023-10-08T03:23:58;102187.09;;;25.74
64296;BMP280;51082;38.236;15.432;2023-10-08T03:25:01;102182.56;;;25.75
64296;BMP280;51082;38.236;15.432;2023-10-08T03:26:17;102190.84;;;25.73
64296;BMP280;51082;38.236;15.432;2023-10-08T03:27:34;102189.78;;;25.74
64296;BMP280;51082;38.236;15.432;2023-10-08T03:28:44;102192.69;;;25.73
64296;BMP280;51082;38.236;15.432;2023-10-08T03:29:46;102196.97;;;25.74
64296;BMP280;51082;38.236;15.432;2023-10-08T03:30:48;102196.97;;;25.74
64296;BMP280;51082;38.236;15.432;2023-10-08T03:31:50;102188.97;;;25.74
64296;BMP280;51082;38.236;15.432;2023-10-08T03:32:56;102194.31;;;25.74
64296;BMP280;51082;38.236;15.432;2023-10-08T03:33:57;102195.09;;;25.74
64296;BMP280;51082;38.236;15.432;2023-10-08T03:34:59;102195.38;;;25.73
64296;BMP280;51082;38.236;15.432;2023-10-08T03:36:02;102190.03;;;25.73
64296;BMP280;51082;38.236;15.432;2023-10-08T03:37:16;102186.81;;;25.71
64296;BMP280;51082;38.236;15.432;2023-10-08T03:38:21;102186.81;;;25.71
64296;BMP280;51082;38.236;15.432;2023-10-08T03:39:29;102188.94;;;25.69
64296;BMP280;51082;38.236;15.432;2023-10-08T03:40:51;102181.47;;;25.71
64296;BMP280;51082;38.236;15.432;2023-10-08T03:41:58;102186.81;;;25.71
64296;BMP280;51082;38.236;15.432;2023-10-08T03:43:00;102181.47;;;25.71
64296;BMP280;51082;38.236;15.432;2023-10-08T03:44:05;102175.59;;;25.69
64296;BMP280;51082;38.236;15.432;2023-10-08T03:45:08;102183.34;;;25.70
64296;BMP280;51082;38.236;15.432;2023-10-08T03:46:14;102181.47;;;25.71
64296;BMP280;51082;38.236;15.432;2023-10-08T03:47:17;102190.00;;;25.68
64296;BMP280;51082;38.236;15.432;2023-10-08T03:48:20;102176.66;;;25.68
64296;BMP280;51082;38.236;15.432;2023-10-08T03:49:23;102183.59;;;25.69
64296;BMP280;51082;38.236;15.432;2023-10-08T03:50:28;102188.13;;;25.68
64296;BMP280;51082;38.236;15.432;2023-10-08T03:51:41;102184.66;;;25.68
64296;BMP280;51082;38.236;15.432;2023-10-08T03:52:42;102182.78;;;25.68
64296;BMP280;51082;38.236;15.432;2023-10-08T03:53:45;102187.31;;;25.68
64296;BMP280;51082;38.236;15.432;2023-10-08T03:54:59;102191.06;;;25.67
64296;BMP280;51082;38.236;15.432;2023-10-08T03:56:14;102187.88;;;25.70
64296;BMP280;51082;38.236;15.432;2023-10-08T03:57:15;102188.13;;;25.68
64296;BMP280;51082;38.236;15.432;2023-10-08T03:58:26;102196.69;;;25.70
64296;BMP280;51082;38.236;15.432;2023-10-08T03:59:31;102184.41;;;25.69
64296;BMP280;51082;38.236;15.432;2023-10-08T04:00:35;102187.88;;;25.70
64296;BMP280;51082;38.236;15.432;2023-10-08T04:01:42;102186.00;;;25.70
64296;BMP280;51082;38.236;15.432;2023-10-08T04:02:45;102184.41;;;25.69
64296;BMP280;51082;38.236;15.432;2023-10-08T04:03:55;102188.94;;;25.69
64296;BMP280;51082;38.236;15.432;2023-10-08T04:05:01;102178.78;;;25.66
64296;BMP280;51082;38.236;15.432;2023-10-08T04:06:19;102184.09;;;25.66
64296;BMP280;51082;38.236;15.432;2023-10-08T04:07:25;102185.97;;;25.65
64296;BMP280;51082;38.236;15.432;2023-10-08T04:08:29;102184.09;;;25.66
64296;BMP280;51082;38.236;15.432;2023-10-08T04:09:45;102181.72;;;25.64
64296;BMP280;51082;38.236;15.432;2023-10-08T04:10:48;102185.19;;;25.65
64296;BMP280;51082;38.236;15.432;2023-10-08T04:12:08;102186.78;;;25.66
64296;BMP280;51082;38.236;15.432;2023-10-08T04:13:12;102180.38;;;25.67
64296;BMP280;51082;38.236;15.432;2023-10-08T04:14:18;102192.13;;;25.66
64296;BMP280;51082;38.236;15.432;2023-10-08T04:15:21;102189.19;;;25.67
64296;BMP280;51082;38.236;15.432;2023-10-08T04:16:24;102187.31;;;25.68
64296;BMP280;51082;38.236;15.432;2023-10-08T04:17:28;102183.03;;;25.67
64296;BMP280;51082;38.236;15.432;2023-10-08T04:18:31;102187.56;;;25.66
64296;BMP280;51082;38.236;15.432;2023-10-08T04:19:39;102190.25;;;25.66
64296;BMP280;51082;38.236;15.432;2023-10-08T04:20:41;102188.63;;;25.65
64296;BMP280;51082;38.236;15.432;2023-10-08T04:22:01;102188.63;;;25.65
64296;BMP280;51082;38.236;15.432;2023-10-08T04:23:06;102185.72;;;25.67
64296;BMP280;51082;38.236;15.432;2023-10-08T04:24:14;102183.59;;;25.69
64296;BMP280;51082;38.236;15.432;2023-10-08T04:25:20;102183.03;;;25.67
64296;BMP280;51082;38.236;15.432;2023-10-08T04:26:22;102184.66;;;25.68
64296;BMP280;51082;38.236;15.432;2023-10-08T04:27:25;102187.06;;;25.69
64296;BMP280;51082;38.236;15.432;2023-10-08T04:28:29;102176.66;;;25.68
64296;BMP280;51082;38.236;15.432;2023-10-08T04:29:34;102180.69;;;25.70
64296;BMP280;51082;38.236;15.432;2023-10-08T04:30:39;102178.25;;;25.69
64296;BMP280;51082;38.236;15.432;2023-10-08T04:31:42;102182.00;;;25.68
64296;BMP280;51082;38.236;15.432;2023-10-08T04:32:44;102168.91;;;25.66
64296;BMP280;51082;38.236;15.432;2023-10-08T04:33:47;102182.78;;;25.68
64296;BMP280;51082;38.236;15.432;2023-10-08T04:34:49;102173.97;;;25.68
64296;BMP280;51082;38.236;15.432;2023-10-08T04:35:53;102180.63;;;25.65
64296;BMP280;51082;38.236;15.432;2023-10-08T04:36:56;102178.78;;;25.66
64296;BMP280;51082;38.236;15.432;2023-10-08T04:38:03;102184.09;;;25.66
64296;BMP280;51082;38.236;15.432;2023-10-08T04:39:05;102180.38;;;25.67
64296;BMP280;51082;38.236;15.432;2023-10-08T04:40:14;102182.25;;;25.66
64296;BMP280;51082;38.236;15.432;2023-10-08T04:41:17;102180.38;;;25.67
64296;BMP280;51082;38.236;15.432;2023-10-08T04:42:20;102186.53;;;25.67
64296;BMP280;51082;38.236;15.432;2023-10-08T04:43:27;102184.09;;;25.66
64296;BMP280;51082;38.236;15.432;2023-10-08T04:44:31;102178.25;;;25.69
64296;BMP280;51082;38.236;15.432;2023-10-08T04:45:33;102176.66;;;25.68
64296;BMP280;51082;38.236;15.432;2023-10-08T04:46:37;102180.94;;;25.69
64296;BMP280;51082;38.236;15.432;2023-10-08T04:47:47;102184.66;;;25.68
64296;BMP280;51082;38.236;15.432;2023-10-08T04:48:50;102179.56;;;25.66
64296;BMP280;51082;38.236;15.432;2023-10-08T04:49:52;102178.50;;;25.67
64296;BMP280;51082;38.236;15.432;2023-10-08T04:50:55;102185.72;;;25.67
64296;BMP280;51082;38.236;15.432;2023-10-08T04:52:01;102186.53;;;25.67
64296;BMP280;51082;38.236;15.432;2023-10-08T04:53:09;102195.31;;;25.68
64296;BMP280;51082;38.236;15.432;2023-10-08T04:54:11;102187.31;;;25.68
64296;BMP280;51082;38.236;15.432;2023-10-08T04:55:17;102188.13;;;25.68
64296;BMP280;51082;38.236;15.432;2023-10-08T04:56:21;102188.13;;;25.68
64296;BMP280;51082;38.236;15.432;2023-10-08T04:57:24;102193.72;;;25.67
64296;BMP280;51082;38.236;15.432;2023-10-08T04:58:27;102192.91;;;25.66
64296;BMP280;51082;38.236;15.432;2023-10-08T04:59:34;102190.53;;;25.65
64296;BMP280;51082;38.236;15.432;2023-10-08T05:00:37;102190.53;;;25.65
64296;BMP280;51082;38.236;15.432;2023-10-08T05:01:56;102190.53;;;25.65
64296;BMP280;51082;38.236;15.432;2023-10-08T05:03:13;102188.34;;;25.62
64296;BMP280;51082;38.236;15.432;2023-10-08T05:04:15;102180.94;;;25.64
64296;BMP280;51082;38.236;15.432;2023-10-08T05:05:28;102191.59;;;25.64
64296;BMP280;51082;38.236;15.432;2023-10-08T05:06:39;102187.88;;;25.65
64296;BMP280;51082;38.236;15.432;2023-10-08T05:07:51;102194.78;;;25.66
64296;BMP280;51082;38.236;15.432;2023-10-08T05:09:11;102192.13;;;25.66
64296;BMP280;51082;38.236;15.432;2023-10-08T05:10:23;102190.25;;;25.66
64296;BMP280;51082;38.236;15.432;2023-10-08T05:11:47;102188.94;;;25.69
64296;BMP280;51082;38.236;15.432;2023-10-08T05:13:09;102189.19;;;25.67
64296;BMP280;51082;38.236;15.432;2023-10-08T05:14:18;102191.06;;;25.67
64296;BMP280;51082;38.236;15.432;2023-10-08T05:15:29;102189.72;;;25.64
64296;BMP280;51082;38.236;15.432;2023-10-08T05:16:38;102195.88;;;25.65
64296;BMP280;51082;38.236;15.432;2023-10-08T05:18:04;102183.53;;;25.59
64296;BMP280;51082;38.236;15.432;2023-10-08T05:19:20;102190.75;;;25.63
64296;BMP280;51082;38.236;15.432;2023-10-08T05:20:49;102189.72;;;25.64
64296;BMP280;51082;38.236;15.432;2023-10-08T05:22:04;102196.09;;;25.63
64296;BMP280;51082;38.236;15.432;2023-10-08T05:23:19;102187.88;;;25.65
64296;BMP280;51082;38.236;15.432;2023-10-08T05:24:22;102188.94;;;25.64
64296;BMP280;51082;38.236;15.432;2023-10-08T05:25:28;102192.63;;;25.63
64296;BMP280;51082;38.236;15.432;2023-10-08T05:26:41;102195.28;;;25.63
64296;BMP280;51082;38.236;15.432;2023-10-08T05:27:46;102200.63;;;25.63
64296;BMP280;51082;38.236;15.432;2023-10-08T05:29:00;102192.63;;;25.63
64296;BMP280;51082;38.236;15.432;2023-10-08T05:30:25;102196.09;;;25.63
64296;BMP280;51082;38.236;15.432;2023-10-08T05:31:39;102188.94;;;25.64
64296;BMP280;51082;38.236;15.432;2023-10-08T05:32:48;102199.31;;;25.65
64296;BMP280;51082;38.236;15.432;2023-10-08T05:34:14;102191.59;;;25.64
64296;BMP280;51082;38.236;15.432;2023-10-08T05:35:19;102198.53;;;25.65
64296;BMP280;51082;38.236;15.432;2023-10-08T05:36:49;102198.53;;;25.65
64296;BMP280;51082;38.236;15.432;2023-10-08T05:38:09;102198.75;;;25.63
64296;BMP280;51082;38.236;15.432;2023-10-08T05:39:17;102200.13;;;25.66
64296;BMP280;51082;38.236;15.432;2023-10-08T05:40:30;102197.75;;;25.64
64296;BMP280;51082;38.236;15.432;2023-10-08T05:41:50;102193.97;;;25.65
64296;BMP280;51082;38.236;15.432;2023-10-08T05:42:56;102195.28;;;25.63
64296;BMP280;51082;38.236;15.432;2023-10-08T05:44:02;102199.59;;;25.64
64296;BMP280;51082;38.236;15.432;2023-10-08T05:45:24;102193.19;;;25.65
64296;BMP280;51082;38.236;15.432;2023-10-08T05:46:30;102199.59;;;25.64
64296;BMP280;51082;38.236;15.432;2023-10-08T05:47:48;102202.28;;;25.64
64296;BMP280;51082;38.236;15.432;2023-10-08T05:49:08;102203.06;;;25.64
64296;BMP280;51082;38.236;15.432;2023-10-08T05:50:35;102205.44;;;25.66
64296;BMP280;51082;38.236;15.432;2023-10-08T05:51:56;102211.59;;;25.66
64296;BMP280;51082;38.236;15.432;2023-10-08T05:53:26;102201.72;;;25.67
64296;BMP280;51082;38.236;15.432;2023-10-08T05:54:44;102202.28;;;25.64
64296;BMP280;51082;38.236;15.432;2023-10-08T05:56:08;102202.28;;;25.64
64296;BMP280;51082;38.236;15.432;2023-10-08T05:57:29;102210.78;;;25.66
64296;BMP280;51082;38.236;15.432;2023-10-08T05:58:39;102205.44;;;25.66
64296;BMP280;51082;38.236;15.432;2023-10-08T05:59:47;102208.94;;;25.66
64296;BMP280;51082;38.236;15.432;2023-10-08T06:01:14;102206.81;;;25.68
64296;BMP280;51082;38.236;15.432;2023-10-08T06:02:31;102206.00;;;25.68
64296;BMP280;51082;38.236;15.432;2023-10-08T06:03:55;102211.88;;;25.70
64296;BMP280;51082;38.236;15.432;2023-10-08T06:05:21;102210.28;;;25.69
64296;BMP280;51082;38.236;15.432;2023-10-08T06:06:26;102209.22;;;25.70
64296;BMP280;51082;38.236;15.432;2023-10-08T06:07:39;102208.13;;;25.66
64296;BMP280;51082;38.236;15.432;2023-10-08T06:08:57;102212.13;;;25.68
64296;BMP280;51082;38.236;15.432;2023-10-08T06:10:23;102210.78;;;25.66
64296;BMP280;51082;38.236;15.432;2023-10-08T06:11:42;102208.66;;;25.68
64296;BMP280;51082;38.236;15.432;2023-10-08T06:12:58;102214.28;;;25.71
64296;BMP280;51082;38.236;15.432;2023-10-08T06:14:03;102210.53;;;25.72